createdAt,value
2023-01-26T01:28:01.955Z,-0.43
2023-01-26T01:30:34.590Z,-0.51
2023-01-26T01:33:07.335Z,-0.51
2023-01-26T01:35:39.959Z,-0.48
2023-01-26T01:38:12.324Z,-0.46
2023-01-26T01:40:45.415Z,-0.41
2023-01-26T01:43:17.922Z,-0.42
2023-01-26T01:45:51.960Z,-0.37
2023-01-26T01:48:59.008Z,-0.35
2023-01-26T01:51:41.164Z,-0.30
2023-01-26T01:54:18.192Z,-0.27
2023-01-26T01:56:53.895Z,-0.22
2023-01-26T01:59:27.805Z,-0.27
2023-01-26T02:02:00.312Z,-0.28
2023-01-26T02:04:33.063Z,-0.33
2023-01-26T02:07:07.194Z,-0.32
2023-01-26T02:09:59.326Z,-0.27
2023-01-26T02:12:53.511Z,-0.26
2023-01-26T02:15:25.906Z,-0.22
2023-01-26T02:17:58.599Z,-0.23
2023-01-26T02:20:38.655Z,-0.21
2023-01-26T02:23:41.615Z,-0.16
2023-01-26T02:26:21.213Z,-0.14
2023-01-26T02:28:55.748Z,-0.16
2023-01-26T02:31:28.413Z,-0.16
2023-01-26T02:34:00.980Z,-0.14
2023-01-26T02:36:59.279Z,-0.11
2023-01-26T02:39:54.952Z,-0.11
2023-01-26T02:42:39.502Z,-0.10
2023-01-26T02:45:16.591Z,-0.11
2023-01-26T02:47:49.705Z,-0.08
2023-01-26T02:50:22.736Z,-0.07
2023-01-26T02:52:55.258Z,-0.03
2023-01-26T02:55:28.982Z,-0.04
2023-01-26T02:58:05.019Z,-0.09
2023-01-26T03:00:40.208Z,-0.14
2023-01-26T03:03:18.967Z,-0.25
2023-01-26T03:05:51.969Z,-0.32
2023-01-26T03:08:24.511Z,-0.34
2023-01-26T03:10:57.126Z,-0.37
2023-01-26T03:13:29.689Z,-0.38
2023-01-26T03:16:04.879Z,-0.37
2023-01-26T03:18:56.512Z,-0.35
2023-01-26T03:21:46.713Z,-0.36
2023-01-26T03:24:37.106Z,-0.40
2023-01-26T03:27:29.856Z,-0.43
2023-01-26T03:30:04.117Z,-0.50
2023-01-26T03:32:37.661Z,-0.51
2023-01-26T03:35:13.216Z,-0.48
2023-01-26T03:37:46.185Z,-0.45
2023-01-26T03:40:39.238Z,-0.42
2023-01-26T03:43:29.774Z,-0.38
2023-01-26T03:46:25.362Z,-0.35
2023-01-26T03:49:16.739Z,-0.35
2023-01-26T03:52:08.387Z,-0.39
2023-01-26T03:54:59.675Z,-0.39
2023-01-26T03:57:32.056Z,-0.38
2023-01-26T04:00:04.990Z,-0.37
2023-01-26T04:02:57.223Z,-0.35
2023-01-26T04:05:47.796Z,-0.35
2023-01-26T04:08:27.896Z,-0.33
2023-01-26T04:11:02.072Z,-0.34
2023-01-26T04:13:52.528Z,-0.33
2023-01-26T04:16:47.368Z,-0.33
2023-01-26T04:19:38.057Z,-0.29
2023-01-26T04:22:12.973Z,-0.27
2023-01-26T04:24:47.831Z,-0.24
2023-01-26T04:27:20.915Z,-0.17
2023-01-26T04:29:53.595Z,-0.17
2023-01-26T04:32:27.889Z,-0.13
2023-01-26T04:35:00.412Z,-0.10
2023-01-26T04:37:33.706Z,-0.08
2023-01-26T04:40:29.140Z,-0.09
2023-01-26T04:43:01.984Z,-0.11
2023-01-26T04:45:34.501Z,-0.12
2023-01-26T04:48:08.240Z,-0.12
2023-01-26T04:50:40.664Z,-0.10
2023-01-26T04:53:13.309Z,-0.06
2023-01-26T04:55:47.030Z,-0.03
2023-01-26T04:58:19.628Z,-0.01
2023-01-26T05:00:59.325Z,0.02
2023-01-26T05:03:31.805Z,0.03
2023-01-26T05:06:04.883Z,0.04
2023-01-26T05:08:38.694Z,0.05
2023-01-26T05:11:11.503Z,0.08
2023-01-26T05:13:55.122Z,0.08
2023-01-26T05:16:28.915Z,0.07
2023-01-26T05:19:08.912Z,0.04
2023-01-26T05:21:43.081Z,0.04
2023-01-26T05:24:17.157Z,0.05
2023-01-26T05:27:22.575Z,0.04
2023-01-26T05:29:58.637Z,0.00
2023-01-26T05:32:31.000Z,-0.02
2023-01-26T05:35:03.367Z,-0.04
2023-01-26T05:37:36.952Z,-0.05
2023-01-26T05:40:30.524Z,-0.03
2023-01-26T05:43:03.304Z,-0.04
2023-01-26T05:45:49.644Z,-0.06
2023-01-26T05:48:22.841Z,-0.06
2023-01-26T05:50:58.781Z,-0.08
2023-01-26T05:53:31.394Z,-0.07
2023-01-26T05:56:04.069Z,-0.10
2023-01-26T05:58:38.877Z,-0.15
2023-01-26T06:01:11.627Z,-0.18
2023-01-26T06:03:45.765Z,-0.14
2023-01-26T06:06:18.551Z,-0.12
2023-01-26T06:08:55.405Z,-0.10
2023-01-26T06:11:38.043Z,-0.07
2023-01-26T06:14:15.141Z,-0.08
2023-01-26T06:16:47.692Z,-0.09
2023-01-26T06:19:21.067Z,-0.07
2023-01-26T06:21:55.628Z,-0.08
2023-01-26T06:24:28.751Z,-0.09
2023-01-26T06:27:01.300Z,-0.10
2023-01-26T06:29:34.794Z,-0.09
2023-01-26T06:32:08.019Z,-0.07
2023-01-26T06:34:41.056Z,-0.07
2023-01-26T06:37:14.154Z,-0.04
2023-01-26T06:39:47.080Z,-0.05
2023-01-26T06:42:19.572Z,-0.04
2023-01-26T06:44:52.798Z,-0.07
2023-01-26T06:47:25.493Z,-0.07
2023-01-26T06:49:58.090Z,-0.09
2023-01-26T06:52:34.317Z,-0.04
2023-01-26T06:55:23.490Z,-0.02
2023-01-26T06:58:06.714Z,-0.03
2023-01-26T07:00:41.600Z,-0.01
2023-01-26T07:03:22.043Z,0.02
2023-01-26T07:05:54.521Z,0.06
2023-01-26T07:08:27.783Z,0.07
2023-01-26T07:11:00.391Z,0.04
2023-01-26T07:13:33.271Z,0.00
2023-01-26T07:16:09.133Z,0.03
2023-01-26T07:18:42.339Z,0.09
2023-01-26T07:21:19.634Z,0.10
2023-01-26T07:23:53.427Z,0.20
2023-01-26T07:26:25.928Z,0.23
2023-01-26T07:28:58.298Z,0.17
2023-01-26T07:31:31.448Z,0.11
2023-01-26T07:34:04.139Z,0.12
2023-01-26T07:36:36.593Z,0.15
2023-01-26T07:39:09.991Z,0.19
2023-01-26T07:41:42.413Z,0.16
2023-01-26T07:44:16.138Z,0.08
2023-01-26T07:46:48.613Z,0.04
2023-01-26T07:49:21.553Z,0.02
2023-01-26T07:51:54.333Z,0.04
2023-01-26T07:54:26.735Z,0.04
2023-01-26T07:56:59.978Z,0.04
2023-01-26T07:59:33.039Z,0.04
2023-01-26T08:02:05.499Z,0.07
2023-01-26T08:04:39.362Z,0.09
2023-01-26T08:07:12.168Z,0.11
2023-01-26T08:09:44.570Z,0.17
2023-01-26T08:12:17.090Z,0.22
2023-01-26T08:14:49.997Z,0.26
2023-01-26T08:17:22.484Z,0.31
2023-01-26T08:19:54.899Z,0.32
2023-01-26T08:22:27.816Z,0.32
2023-01-26T08:25:00.191Z,0.33
2023-01-26T08:27:33.158Z,0.33
2023-01-26T08:30:07.016Z,0.33
2023-01-26T08:32:39.253Z,0.36
2023-01-26T08:35:12.266Z,0.35
2023-01-26T08:37:44.727Z,0.36
2023-01-26T08:40:17.729Z,0.41
2023-01-26T08:42:50.189Z,0.45
2023-01-26T08:45:22.807Z,0.43
2023-01-26T08:47:55.962Z,0.44
2023-01-26T08:50:28.965Z,0.49
2023-01-26T08:53:01.302Z,0.50
2023-01-26T08:55:35.549Z,0.54
2023-01-26T08:58:08.624Z,0.59
2023-01-26T09:00:41.275Z,0.58
2023-01-26T09:03:14.272Z,0.58
2023-01-26T09:05:47.184Z,0.60
2023-01-26T09:08:20.008Z,0.58
2023-01-26T09:11:06.399Z,0.59
2023-01-26T09:13:39.307Z,0.58
2023-01-26T09:16:18.621Z,0.57
2023-01-26T09:18:57.021Z,0.61
2023-01-26T09:21:29.568Z,0.66
2023-01-26T09:24:02.667Z,0.78
2023-01-26T09:26:36.872Z,0.86
2023-01-26T09:29:10.696Z,0.88
2023-01-26T09:31:43.263Z,0.94
2023-01-26T09:34:16.457Z,0.95
2023-01-26T09:36:48.852Z,0.96
2023-01-26T09:39:21.483Z,0.98
2023-01-26T09:42:05.215Z,1.02
2023-01-26T09:44:42.844Z,1.12
2023-01-26T09:47:34.986Z,1.20
2023-01-26T09:50:17.392Z,1.28
2023-01-26T09:53:01.598Z,1.40
2023-01-26T09:55:34.082Z,1.51
2023-01-26T09:58:17.015Z,1.60
2023-01-26T10:00:54.349Z,1.58
2023-01-26T10:03:48.660Z,1.58
2023-01-26T10:06:41.678Z,1.64
2023-01-26T10:09:26.102Z,1.70
2023-01-26T10:12:06.012Z,1.69
2023-01-26T10:14:49.642Z,1.80
2023-01-26T10:17:30.088Z,1.93
2023-01-26T10:20:31.620Z,2.12
2023-01-26T10:23:30.036Z,2.28
2023-01-26T10:26:13.224Z,2.48
2023-01-26T10:28:47.723Z,2.48
2023-01-26T10:31:23.399Z,2.30
2023-01-26T10:34:18.007Z,2.20
2023-01-26T10:36:50.612Z,2.21
2023-01-26T10:39:24.379Z,2.25
2023-01-26T10:42:02.247Z,2.49
2023-01-26T10:44:39.665Z,3.00
2023-01-26T10:47:21.598Z,3.46
2023-01-26T10:49:54.332Z,3.58
2023-01-26T10:52:26.816Z,3.55
2023-01-26T10:55:20.202Z,3.44
2023-01-26T10:57:52.580Z,3.31
2023-01-26T11:00:33.909Z,3.05
2023-01-26T11:03:16.885Z,2.84
2023-01-26T11:05:53.732Z,2.72
2023-01-26T11:08:53.676Z,2.67
2023-01-26T11:11:28.586Z,2.59
2023-01-26T11:14:19.439Z,2.73
2023-01-26T11:17:11.810Z,3.33
2023-01-26T11:19:58.393Z,4.19
2023-01-26T11:22:50.895Z,4.42
2023-01-26T11:25:53.263Z,4.27
2023-01-26T11:29:13.974Z,4.18
2023-01-26T11:32:00.236Z,4.05
2023-01-26T11:34:46.379Z,3.92
2023-01-26T11:38:04.734Z,3.77
2023-01-26T11:41:17.854Z,3.56
2023-01-26T11:44:28.397Z,3.25
2023-01-26T11:47:05.734Z,3.02
2023-01-26T11:50:16.273Z,2.88
2023-01-26T11:53:26.231Z,2.82
2023-01-26T11:56:21.369Z,2.77
2023-01-26T11:59:13.096Z,2.72
2023-01-26T12:01:59.574Z,2.65
2023-01-26T12:04:36.728Z,2.54
2023-01-26T12:07:22.649Z,2.49
2023-01-26T12:09:55.118Z,2.46
2023-01-26T12:12:45.717Z,2.49
2023-01-26T12:15:21.699Z,2.54
2023-01-26T12:18:16.964Z,2.58
2023-01-26T12:20:55.278Z,2.61
2023-01-26T12:23:47.390Z,2.53
2023-01-26T12:26:22.805Z,2.47
2023-01-26T12:29:23.043Z,2.44
2023-01-26T12:32:14.311Z,2.43
2023-01-26T12:34:47.067Z,2.39
2023-01-26T12:37:48.160Z,2.39
2023-01-26T12:41:06.832Z,2.40
2023-01-26T12:44:11.646Z,2.34
2023-01-26T12:46:48.262Z,2.29
2023-01-26T12:50:09.946Z,2.25
2023-01-26T12:52:56.363Z,2.24
2023-01-26T12:55:42.497Z,2.16
2023-01-26T12:58:33.710Z,2.15
2023-01-26T13:01:15.088Z,2.12
2023-01-26T13:03:58.671Z,2.10
2023-01-26T13:06:31.588Z,2.12
2023-01-26T13:09:34.508Z,2.12
2023-01-26T13:12:08.772Z,2.08
2023-01-26T13:14:46.067Z,2.05
2023-01-26T13:17:24.207Z,1.95
2023-01-26T13:20:00.392Z,1.81
2023-01-26T13:22:41.650Z,1.75
2023-01-26T13:25:41.962Z,1.68
2023-01-26T13:28:15.207Z,1.64
2023-01-26T13:30:48.016Z,1.63
2023-01-26T13:33:25.219Z,1.64
2023-01-26T13:35:57.724Z,1.61
2023-01-26T13:38:49.306Z,1.60
2023-01-26T13:41:22.663Z,1.65
2023-01-26T13:44:10.965Z,1.68
2023-01-26T13:46:47.948Z,1.69
2023-01-26T13:49:40.736Z,1.71
2023-01-26T13:52:25.624Z,1.71
2023-01-26T13:54:59.209Z,1.62
2023-01-26T13:57:32.180Z,1.58
2023-01-26T14:00:05.176Z,1.57
2023-01-26T14:02:38.991Z,1.57
2023-01-26T14:05:23.961Z,1.54
2023-01-26T14:07:55.831Z,1.47
2023-01-26T14:10:28.114Z,1.43
2023-01-26T14:13:01.351Z,1.47
2023-01-26T14:15:35.239Z,1.54
2023-01-26T14:18:09.823Z,1.57
2023-01-26T14:20:42.628Z,1.59
2023-01-26T14:23:19.839Z,1.57
2023-01-26T14:26:04.621Z,1.54
2023-01-26T14:28:40.833Z,1.56
2023-01-26T14:31:23.923Z,1.53
2023-01-26T14:34:00.548Z,1.50
2023-01-26T14:36:34.794Z,1.43
2023-01-26T14:39:20.397Z,1.37
2023-01-26T14:41:53.368Z,1.25
2023-01-26T14:44:27.718Z,1.12
2023-01-26T14:47:10.946Z,1.06
2023-01-26T14:50:04.865Z,1.02
2023-01-26T14:52:41.648Z,0.95
2023-01-26T14:55:30.617Z,0.90
2023-01-26T14:58:04.167Z,0.89
2023-01-26T15:00:37.970Z,0.84
2023-01-26T15:03:36.471Z,0.81
2023-01-26T15:06:20.619Z,0.77
2023-01-26T15:09:09.151Z,0.75
2023-01-26T15:11:59.756Z,0.71
2023-01-26T15:14:50.483Z,0.68
2023-01-26T15:17:36.217Z,0.69
2023-01-26T15:20:29.832Z,0.81
2023-01-26T15:23:02.149Z,1.13
2023-01-26T15:25:34.733Z,1.51
2023-01-26T15:28:08.919Z,1.66
2023-01-26T15:30:41.561Z,1.68
2023-01-26T15:33:40.404Z,1.63
2023-01-26T15:36:29.307Z,1.64
2023-01-26T15:39:16.530Z,1.61
2023-01-26T15:42:13.636Z,1.56
2023-01-26T15:44:46.085Z,1.43
2023-01-26T15:47:18.587Z,1.39
2023-01-26T15:49:51.145Z,1.42
2023-01-26T15:52:28.372Z,1.44
2023-01-26T15:55:01.407Z,1.41
2023-01-26T15:57:34.338Z,1.36
2023-01-26T16:00:08.018Z,1.32
2023-01-26T16:02:41.398Z,1.34
2023-01-26T16:05:19.284Z,1.33
2023-01-26T16:20:43.466Z,1.91
2023-01-26T16:23:28.843Z,1.82
2023-01-26T16:26:01.667Z,1.80
2023-01-26T16:28:35.186Z,1.81
2023-01-26T16:31:16.332Z,1.76
2023-01-26T16:33:49.856Z,1.63
2023-01-26T16:36:23.263Z,1.53
2023-01-26T16:38:56.013Z,1.44
2023-01-26T16:41:30.888Z,1.36
2023-01-26T16:44:04.091Z,1.29
2023-01-26T16:46:36.614Z,1.24
2023-01-26T16:49:12.485Z,1.14
2023-01-26T16:51:45.132Z,1.07
2023-01-26T16:54:17.986Z,1.04
2023-01-26T16:56:50.418Z,1.06
2023-01-26T16:59:23.226Z,1.10
2023-01-26T17:01:56.266Z,1.13
2023-01-26T17:04:28.816Z,1.12
2023-01-26T17:07:01.218Z,1.15
2023-01-26T17:09:34.073Z,1.21
2023-01-26T17:12:07.839Z,1.21
2023-01-26T17:14:40.459Z,1.25
2023-01-26T17:17:13.296Z,1.22
2023-01-26T17:19:46.214Z,1.21
2023-01-26T17:22:19.497Z,1.19
2023-01-26T17:24:52.098Z,1.22
2023-01-26T17:27:27.644Z,1.23
2023-01-26T17:30:04.897Z,1.25
2023-01-26T17:32:37.882Z,1.24
2023-01-26T17:35:12.841Z,1.26
2023-01-26T17:37:45.952Z,1.25
2023-01-26T17:40:19.502Z,1.29
2023-01-26T17:42:52.437Z,1.30
2023-01-26T17:45:26.040Z,1.29
2023-01-26T17:47:58.954Z,1.21
2023-01-26T17:50:31.546Z,1.20
2023-01-26T17:53:04.460Z,1.20
2023-01-26T17:55:38.595Z,1.18
2023-01-26T17:58:11.823Z,1.14
2023-01-26T18:00:45.729Z,1.16
2023-01-26T18:03:20.676Z,1.17
2023-01-26T18:05:53.552Z,1.19
2023-01-26T18:08:26.047Z,1.21
2023-01-26T18:11:00.793Z,1.26
2023-01-26T18:13:33.652Z,1.28
2023-01-26T18:16:11.874Z,1.31
2023-01-26T18:18:44.876Z,1.29
2023-01-26T18:21:22.756Z,1.29
2023-01-26T18:24:01.636Z,1.29
2023-01-26T18:26:38.340Z,1.26
2023-01-26T18:29:11.688Z,1.21
2023-01-26T18:31:44.250Z,1.19
2023-01-26T18:34:18.466Z,1.21
2023-01-26T18:36:52.013Z,1.21
2023-01-26T18:39:24.626Z,1.20
2023-01-26T18:41:57.771Z,1.20
2023-01-26T18:44:30.105Z,1.12
2023-01-26T18:47:02.643Z,1.08
2023-01-26T18:49:35.910Z,1.10
2023-01-26T18:52:09.556Z,1.12
2023-01-26T18:54:42.846Z,1.16
2023-01-26T18:57:15.554Z,1.28
2023-01-26T18:59:48.341Z,1.32
2023-01-26T19:02:21.153Z,1.39
2023-01-26T19:04:55.238Z,1.37
2023-01-26T19:07:28.465Z,1.34
2023-01-26T19:10:00.789Z,1.39
2023-01-26T19:12:33.707Z,1.44
2023-01-26T19:15:07.183Z,1.46
2023-01-26T19:17:42.040Z,1.39
2023-01-26T19:20:15.316Z,1.36
2023-01-26T19:22:51.210Z,1.39
2023-01-26T19:25:26.071Z,1.39
2023-01-26T19:28:00.301Z,1.42
2023-01-26T19:30:33.444Z,1.35
2023-01-26T19:33:23.967Z,1.28
2023-01-26T19:35:56.989Z,1.23
2023-01-26T19:38:30.964Z,1.21
2023-01-26T19:41:03.835Z,1.22
2023-01-26T19:43:36.507Z,1.26
2023-01-26T19:46:11.621Z,1.28
2023-01-26T19:48:44.461Z,1.27
2023-01-26T19:51:25.144Z,1.28
2023-01-26T19:53:59.625Z,1.32
2023-01-26T19:56:36.367Z,1.38
2023-01-26T19:59:22.496Z,1.48
2023-01-26T20:01:55.374Z,1.36
2023-01-26T20:04:28.022Z,1.30
2023-01-26T20:07:02.842Z,1.28
2023-01-26T20:09:36.074Z,1.28
2023-01-26T20:12:10.693Z,1.31
2023-01-26T20:14:43.822Z,1.25
2023-01-26T20:17:17.037Z,1.28
2023-01-26T20:19:49.670Z,1.22
2023-01-26T20:22:24.119Z,1.18
2023-01-26T20:24:56.624Z,1.19
2023-01-26T20:27:30.298Z,1.20
2023-01-26T20:30:02.875Z,1.14
2023-01-26T20:32:35.755Z,1.15
2023-01-26T20:35:09.516Z,1.16
2023-01-26T20:37:42.293Z,1.20
2023-01-26T20:40:15.201Z,1.23
2023-01-26T20:42:50.074Z,1.23
2023-01-26T20:45:23.533Z,1.21
2023-01-26T20:47:55.980Z,1.25
2023-01-26T20:50:30.051Z,1.27
2023-01-26T20:53:02.661Z,1.27
2023-01-26T20:55:35.591Z,1.24
2023-01-26T20:58:08.301Z,1.24
2023-01-26T21:00:41.008Z,1.26
2023-01-26T21:03:13.932Z,1.28
2023-01-26T21:05:46.925Z,1.28
2023-01-26T21:08:19.551Z,1.30
2023-01-26T21:10:52.975Z,1.34
2023-01-26T21:13:27.518Z,1.36
2023-01-26T21:16:00.617Z,1.35
2023-01-26T21:18:33.216Z,1.30
2023-01-26T21:21:07.742Z,1.30
2023-01-26T21:23:40.657Z,1.29
2023-01-26T21:26:16.378Z,1.30
2023-01-26T21:28:55.829Z,1.30
2023-01-26T21:31:31.089Z,1.24
2023-01-26T21:34:03.704Z,1.22
2023-01-26T21:36:36.794Z,1.17
2023-01-26T21:39:12.439Z,1.17
2023-01-26T21:41:57.555Z,1.15
2023-01-26T21:44:35.704Z,1.18
2023-01-26T21:47:08.417Z,1.14
2023-01-26T21:49:40.969Z,1.14
2023-01-26T21:52:31.286Z,1.12
2023-01-26T21:55:04.410Z,1.13
2023-01-26T21:57:54.587Z,1.15
2023-01-26T22:00:28.094Z,1.17
2023-01-26T22:03:00.900Z,1.18
2023-01-26T22:05:35.186Z,1.19
2023-01-26T22:08:09.429Z,1.16
2023-01-26T22:10:42.268Z,1.14
2023-01-26T22:13:15.651Z,1.14
2023-01-26T22:15:48.136Z,1.16
2023-01-26T22:18:21.444Z,1.18
2023-01-26T22:20:55.680Z,1.18
2023-01-26T22:23:27.608Z,1.17
2023-01-26T22:26:00.644Z,1.17
2023-01-26T22:28:33.576Z,1.12
2023-01-26T22:31:07.907Z,1.14
2023-01-26T22:33:40.360Z,1.14
2023-01-26T22:36:14.732Z,1.14
2023-01-26T22:38:47.560Z,1.14
2023-01-26T22:41:22.691Z,1.15
2023-01-26T22:43:58.134Z,1.16
2023-01-26T22:46:31.892Z,1.17
2023-01-26T22:49:05.173Z,1.14
2023-01-26T22:51:38.427Z,1.13
2023-01-26T22:54:10.882Z,1.10
2023-01-26T22:56:43.444Z,1.11
2023-01-26T22:59:15.935Z,1.11
2023-01-26T23:01:49.465Z,1.11
2023-01-26T23:04:22.439Z,1.09
2023-01-26T23:06:55.129Z,1.08
2023-01-26T23:09:27.606Z,1.03
2023-01-26T23:12:07.139Z,1.01
2023-01-26T23:14:39.712Z,1.01
2023-01-26T23:17:14.407Z,1.03
2023-01-26T23:19:49.671Z,0.98
2023-01-26T23:22:23.915Z,0.96
2023-01-26T23:25:14.958Z,0.90
2023-01-26T23:27:49.309Z,0.86
2023-01-26T23:30:22.790Z,0.88
2023-01-26T23:32:55.190Z,0.92
2023-01-26T23:35:27.762Z,0.93
2023-01-26T23:38:01.867Z,0.95
2023-01-26T23:40:40.485Z,0.95
2023-01-26T23:43:17.134Z,0.93
2023-01-26T23:45:48.286Z,0.88
2023-01-26T23:48:21.839Z,0.89
2023-01-26T23:51:22.267Z,0.88
2023-01-26T23:53:56.046Z,0.89
2023-01-26T23:56:28.958Z,0.87
2023-01-26T23:59:01.917Z,0.91
